Time;durP1;ratioP1;P1;durP2;ratioP2;P2;SDS_P1;SDS_P2;PMS_P1;PMS_P2;Temp;Humidity;BMP_temperature;BMP_pressure;BME280_temperature;BME280_humidity;BME280_pressure;Samples;Min_cycle;Max_cycle;Signal;HPM_P1;HPM_P2
2022/12/04 00:00:23;;;;;;;34.43;20.80;;;;;;;;;;6337943;22;20419;-74
2022/12/04 00:03:12;;;;;;;37.07;21.27;;;;;;;;;;6340760;22;20405;-76
2022/12/04 00:06:04;;;;;;;35.10;22.27;;;;;;;;;;6335989;22;20410;-74
2022/12/04 00:09:02;;;;;;;34.23;21.00;;;;;;;;;;6309859;22;20497;-78
2022/12/04 00:11:52;;;;;;;34.37;21.70;;;;;;;;;;6309903;22;20444;-74
2022/12/04 00:14:40;;;;;;;37.67;22.93;;;;;;;;;;6309724;22;21142;-74
2022/12/04 00:17:49;;;;;;;40.87;21.43;;;;;;;;;;6309122;22;20444;-74
2022/12/04 00:20:40;;;;;;;34.30;21.40;;;;;;;;;;6310877;22;20408;-75
2022/12/04 00:23:30;;;;;;;33.83;20.60;;;;;;;;;;6310901;22;20432;-73
2022/12/04 00:26:32;;;;;;;35.17;22.10;;;;;;;;;;6312982;22;20488;-76
2022/12/04 00:29:22;;;;;;;34.43;20.80;;;;;;;;;;6316121;22;20416;-73
2022/12/04 00:32:11;;;;;;;32.90;20.30;;;;;;;;;;6313974;22;20464;-74
2022/12/04 00:34:59;;;;;;;36.77;21.43;;;;;;;;;;6311979;22;20405;-75
2022/12/04 00:37:50;;;;;;;37.93;22.67;;;;;;;;;;6312634;22;20450;-75
2022/12/04 00:40:41;;;;;;;35.17;20.97;;;;;;;;;;6313374;22;20417;-74
2022/12/04 00:43:31;;;;;;;32.33;19.37;;;;;;;;;;6311391;22;20923;-75
2022/12/04 00:46:24;;;;;;;34.10;21.30;;;;;;;;;;6308796;22;20413;-74
2022/12/04 00:49:18;;;;;;;31.93;20.30;;;;;;;;;;6303266;22;20409;-75
2022/12/04 00:52:12;;;;;;;30.63;19.10;;;;;;;;;;6308488;22;20463;-74
2022/12/04 00:55:02;;;;;;;35.27;21.40;;;;;;;;;;6305266;22;20414;-75
2022/12/04 00:57:50;;;;;;;35.17;20.60;;;;;;;;;;6312342;22;20446;-75
2022/12/04 01:00:51;;;;;;;31.70;20.77;;;;;;;;;;6307356;22;20409;-74
2022/12/04 01:03:43;;;;;;;32.37;20.40;;;;;;;;;;6309865;22;20427;-75
2022/12/04 01:06:36;;;;;;;29.60;20.13;;;;;;;;;;6313267;22;20909;-74
2022/12/04 01:09:24;;;;;;;31.53;19.30;;;;;;;;;;6307419;22;20405;-73
2022/12/04 01:12:14;;;;;;;34.70;21.07;;;;;;;;;;6305712;22;20497;-76
2022/12/04 01:15:11;;;;;;;37.40;21.73;;;;;;;;;;6312645;22;20413;-76
2022/12/04 01:18:02;;;;;;;34.60;20.30;;;;;;;;;;6313153;22;20457;-74
2022/12/04 01:20:52;;;;;;;32.93;20.60;;;;;;;;;;6312372;22;20426;-75
2022/12/04 01:23:41;;;;;;;31.03;20.10;;;;;;;;;;6307519;22;20416;-74
2022/12/04 01:26:31;;;;;;;32.30;21.10;;;;;;;;;;6307890;22;20436;-76
2022/12/04 01:29:20;;;;;;;31.73;20.40;;;;;;;;;;6308031;22;20421;-74
2022/12/04 01:32:09;;;;;;;35.07;21.30;;;;;;;;;;6310815;22;20407;-74
2022/12/04 01:35:00;;;;;;;34.73;20.63;;;;;;;;;;6311533;22;20852;-76
2022/12/04 01:37:54;;;;;;;36.40;21.77;;;;;;;;;;6310478;22;20443;-74
2022/12/04 01:40:45;;;;;;;32.97;22.40;;;;;;;;;;6316925;22;20408;-74
2022/12/04 01:43:35;;;;;;;36.83;21.83;;;;;;;;;;6312726;22;20727;-73
2022/12/04 01:46:26;;;;;;;32.37;20.67;;;;;;;;;;6309255;22;20405;-74
2022/12/04 01:49:20;;;;;;;33.70;20.50;;;;;;;;;;6311120;22;20486;-75
2022/12/04 01:52:14;;;;;;;34.20;20.10;;;;;;;;;;6310189;22;20419;-73
2022/12/04 01:55:04;;;;;;;35.40;21.57;;;;;;;;;;6308406;22;20410;-76
2022/12/04 01:57:57;;;;;;;35.70;21.40;;;;;;;;;;6311300;22;20447;-74
2022/12/04 02:00:46;;;;;;;36.00;21.57;;;;;;;;;;6310630;22;20479;-77
2022/12/04 02:03:42;;;;;;;33.73;22.03;;;;;;;;;;6311506;22;20408;-76
2022/12/04 02:06:32;;;;;;;34.90;21.17;;;;;;;;;;6310264;22;20507;-73
2022/12/04 02:09:22;;;;;;;41.60;23.90;;;;;;;;;;6305832;22;20413;-73
2022/12/04 02:12:20;;;;;;;37.83;22.70;;;;;;;;;;6320323;22;20439;-73
2022/12/04 02:15:22;;;;;;;34.13;22.20;;;;;;;;;;6305018;22;20397;-75
2022/12/04 02:18:18;;;;;;;34.60;21.17;;;;;;;;;;6306372;22;20439;-73
2022/12/04 02:21:12;;;;;;;32.03;20.47;;;;;;;;;;6309525;22;20790;-76
2022/12/04 02:24:28;;;;;;;31.83;20.67;;;;;;;;;;6305355;22;20439;-74
2022/12/04 02:27:21;;;;;;;40.20;21.00;;;;;;;;;;6308342;22;20940;-76
2022/12/04 02:30:24;;;;;;;33.60;21.53;;;;;;;;;;6311172;22;20990;-75
2022/12/04 02:33:21;;;;;;;35.67;20.40;;;;;;;;;;6309939;22;20991;-74
2022/12/04 02:36:17;;;;;;;33.27;20.47;;;;;;;;;;6311291;22;20757;-73
2022/12/04 02:39:10;;;;;;;36.47;21.30;;;;;;;;;;6311540;22;20887;-77
2022/12/04 02:42:06;;;;;;;31.70;21.10;;;;;;;;;;6307042;22;20471;-75
2022/12/04 02:44:58;;;;;;;32.30;19.63;;;;;;;;;;6312168;22;20409;-77
2022/12/04 02:47:48;;;;;;;36.07;21.10;;;;;;;;;;6309158;22;20424;-74
2022/12/04 02:50:47;;;;;;;34.40;20.50;;;;;;;;;;6308126;22;20988;-76
2022/12/04 02:53:37;;;;;;;36.00;20.90;;;;;;;;;;6306190;22;20452;-77
2022/12/04 02:56:31;;;;;;;38.23;22.90;;;;;;;;;;6303824;22;20420;-74
2022/12/04 02:59:21;;;;;;;35.60;21.10;;;;;;;;;;6307692;22;20435;-76
2022/12/04 03:02:13;;;;;;;31.30;20.53;;;;;;;;;;6308661;22;20893;-74
2022/12/04 03:05:05;;;;;;;37.17;21.53;;;;;;;;;;6309519;22;20558;-74
2022/12/04 03:07:55;;;;;;;36.20;21.10;;;;;;;;;;6309326;22;20433;-76
2022/12/04 03:10:46;;;;;;;34.80;21.17;;;;;;;;;;6304389;22;20420;-76
2022/12/04 03:13:38;;;;;;;37.37;21.10;;;;;;;;;;6316194;22;20514;-76
2022/12/04 03:16:29;;;;;;;34.93;21.17;;;;;;;;;;6307045;22;20896;-74
2022/12/04 03:19:22;;;;;;;31.50;19.67;;;;;;;;;;6309871;22;20425;-74
2022/12/04 03:22:15;;;;;;;34.97;20.97;;;;;;;;;;6304187;22;20408;-74
2022/12/04 03:25:11;;;;;;;36.10;20.13;;;;;;;;;;6304924;22;20401;-74
2022/12/04 03:28:02;;;;;;;33.83;20.10;;;;;;;;;;6307170;22;20425;-76
2022/12/04 03:30:57;;;;;;;37.93;22.97;;;;;;;;;;6311312;22;20417;-74
2022/12/04 03:33:47;;;;;;;38.87;22.50;;;;;;;;;;6309004;22;20481;-74
2022/12/04 03:36:41;;;;;;;35.57;20.67;;;;;;;;;;6315616;22;20519;-75
2022/12/04 03:39:40;;;;;;;35.30;20.03;;;;;;;;;;6307357;22;20810;-75
2022/12/04 03:42:38;;;;;;;38.00;22.37;;;;;;;;;;6303085;22;20504;-76
2022/12/04 03:45:29;;;;;;;33.37;20.17;;;;;;;;;;6305289;22;20434;-74
2022/12/04 03:48:21;;;;;;;32.30;20.37;;;;;;;;;;6304707;22;20437;-76
2022/12/04 03:51:24;;;;;;;34.77;21.07;;;;;;;;;;6308828;22;20925;-74
2022/12/04 03:54:29;;;;;;;31.83;20.67;;;;;;;;;;6306860;22;20451;-75
2022/12/04 03:57:26;;;;;;;34.03;20.30;;;;;;;;;;6309851;22;20454;-76
2022/12/04 04:00:18;;;;;;;38.87;22.03;;;;;;;;;;6320408;22;20477;-74
2022/12/04 04:03:14;;;;;;;34.80;21.67;;;;;;;;;;6308052;22;20401;-73
2022/12/04 04:06:06;;;;;;;34.07;20.23;;;;;;;;;;6309800;22;20911;-74
2022/12/04 04:08:57;;;;;;;36.40;20.87;;;;;;;;;;6309298;22;20405;-74
2022/12/04 04:11:53;;;;;;;33.60;19.43;;;;;;;;;;6299964;22;20410;-74
2022/12/04 04:24:15;;;;;;;31.73;19.63;;;;;;;;;;6307576;22;20405;-75
2022/12/04 04:27:08;;;;;;;32.30;20.73;;;;;;;;;;6310155;22;20441;-77
2022/12/04 04:29:58;;;;;;;33.27;20.73;;;;;;;;;;6300052;22;20416;-74
2022/12/04 04:32:55;;;;;;;31.83;20.10;;;;;;;;;;6307080;22;20409;-75
2022/12/04 04:35:46;;;;;;;34.47;20.80;;;;;;;;;;6306577;22;20446;-76
2022/12/04 04:38:39;;;;;;;33.00;21.13;;;;;;;;;;6302244;22;20421;-77
2022/12/04 04:41:33;;;;;;;29.47;19.80;;;;;;;;;;6307928;22;20405;-75
2022/12/04 04:44:28;;;;;;;33.20;20.83;;;;;;;;;;6305185;22;20494;-74
2022/12/04 04:47:29;;;;;;;32.17;20.50;;;;;;;;;;6308359;22;20439;-75
2022/12/04 04:50:18;;;;;;;36.43;21.20;;;;;;;;;;6302812;22;20412;-77
2022/12/04 04:53:09;;;;;;;33.90;20.43;;;;;;;;;;6308158;22;20415;-76
2022/12/04 04:56:00;;;;;;;37.73;21.50;;;;;;;;;;6310599;22;20437;-75
2022/12/04 04:58:52;;;;;;;37.80;22.43;;;;;;;;;;6307667;22;20424;-75
2022/12/04 05:01:45;;;;;;;34.73;21.37;;;;;;;;;;6305013;22;20405;-75
2022/12/04 05:04:41;;;;;;;30.70;20.90;;;;;;;;;;6304934;22;20502;-74
2022/12/04 05:07:29;;;;;;;33.30;19.07;;;;;;;;;;6299859;22;20425;-75
2022/12/04 05:10:19;;;;;;;33.40;20.90;;;;;;;;;;6303861;22;20413;-75
2022/12/04 05:13:14;;;;;;;35.73;21.03;;;;;;;;;;6305409;22;20462;-74
2022/12/04 05:16:05;;;;;;;36.20;21.80;;;;;;;;;;6299196;22;20436;-74
2022/12/04 05:22:08;;;;;;;35.37;20.77;;;;;;;;;;6306624;22;20414;-76
2022/12/04 05:25:00;;;;;;;31.83;20.93;;;;;;;;;;6298950;22;20805;-75
2022/12/04 05:27:49;;;;;;;34.03;21.13;;;;;;;;;;6303504;22;20432;-74
2022/12/04 05:30:40;;;;;;;40.13;21.80;;;;;;;;;;6303677;22;20416;-76
2022/12/04 05:33:31;;;;;;;37.17;22.37;;;;;;;;;;6306008;22;20416;-74
2022/12/04 05:36:22;;;;;;;30.33;19.60;;;;;;;;;;6302158;22;20407;-75
2022/12/04 05:39:15;;;;;;;33.73;22.07;;;;;;;;;;6307530;22;20420;-74
2022/12/04 05:42:04;;;;;;;33.03;20.90;;;;;;;;;;6305036;22;20736;-76
2022/12/04 05:45:00;;;;;;;34.70;20.80;;;;;;;;;;6301135;22;20409;-74
2022/12/04 05:47:51;;;;;;;33.33;21.10;;;;;;;;;;6311381;22;20791;-74
2022/12/04 05:50:43;;;;;;;32.20;21.60;;;;;;;;;;6309286;22;20405;-77
2022/12/04 05:53:31;;;;;;;32.63;20.93;;;;;;;;;;6310618;22;20405;-74
2022/12/04 05:56:25;;;;;;;39.60;21.67;;;;;;;;;;6312005;22;20502;-75
2022/12/04 05:59:13;;;;;;;33.03;20.20;;;;;;;;;;6322978;22;20459;-75
2022/12/04 06:02:03;;;;;;;35.53;21.70;;;;;;;;;;6342326;22;20407;-75
2022/12/04 06:04:52;;;;;;;34.27;20.90;;;;;;;;;;6335710;22;20423;-75
2022/12/04 06:07:41;;;;;;;37.07;21.50;;;;;;;;;;6337073;22;20407;-75
2022/12/04 06:10:29;;;;;;;35.30;22.77;;;;;;;;;;6322469;22;20412;-74
2022/12/04 06:13:19;;;;;;;39.07;22.20;;;;;;;;;;6326834;22;20916;-74
2022/12/04 06:16:14;;;;;;;36.37;22.50;;;;;;;;;;6322478;22;20864;-76
2022/12/04 06:19:05;;;;;;;33.37;21.10;;;;;;;;;;6325641;22;20538;-75
2022/12/04 06:21:53;;;;;;;38.17;23.00;;;;;;;;;;6327445;22;20411;-76
2022/12/04 06:24:48;;;;;;;37.23;22.60;;;;;;;;;;6326513;22;20403;-74
2022/12/04 06:27:41;;;;;;;37.03;21.90;;;;;;;;;;6323047;22;20408;-75
2022/12/04 06:30:36;;;;;;;36.73;22.23;;;;;;;;;;6323515;22;20416;-75
2022/12/04 06:33:27;;;;;;;35.77;22.33;;;;;;;;;;6323946;22;20404;-75
2022/12/04 06:36:19;;;;;;;39.50;21.57;;;;;;;;;;6325742;22;20450;-75
2022/12/04 06:39:10;;;;;;;38.43;23.83;;;;;;;;;;6327936;22;20439;-75
2022/12/04 06:42:10;;;;;;;39.83;23.03;;;;;;;;;;6331865;22;20411;-75
2022/12/04 06:45:04;;;;;;;36.87;22.50;;;;;;;;;;6333071;22;20403;-74
2022/12/04 06:47:58;;;;;;;32.87;22.47;;;;;;;;;;6358428;22;20442;-76
2022/12/04 06:50:58;;;;;;;38.63;21.93;;;;;;;;;;6331114;22;20411;-74
2022/12/04 06:53:47;;;;;;;38.37;21.43;;;;;;;;;;6327381;22;20411;-74
2022/12/04 06:56:37;;;;;;;39.27;22.10;;;;;;;;;;6320724;22;21066;-74
2022/12/04 06:59:27;;;;;;;36.57;22.07;;;;;;;;;;6322959;22;20448;-73
2022/12/04 07:02:17;;;;;;;38.63;21.97;;;;;;;;;;6325240;22;20428;-75
2022/12/04 07:05:10;;;;;;;33.83;22.20;;;;;;;;;;6322519;22;20407;-77
2022/12/04 07:07:59;;;;;;;38.07;23.90;;;;;;;;;;6338678;22;20420;-75
2022/12/04 07:10:47;;;;;;;34.60;22.50;;;;;;;;;;6336624;22;20436;-75
2022/12/04 07:13:49;;;;;;;37.87;23.50;;;;;;;;;;6325005;22;20490;-72
2022/12/04 07:16:39;;;;;;;42.13;25.20;;;;;;;;;;6331776;22;20448;-75
2022/12/04 07:19:29;;;;;;;37.00;22.40;;;;;;;;;;6325149;22;20554;-75
2022/12/04 07:22:19;;;;;;;42.37;22.77;;;;;;;;;;6318033;22;21083;-74
2022/12/04 07:25:08;;;;;;;38.50;22.47;;;;;;;;;;6328768;22;20408;-74
2022/12/04 07:27:57;;;;;;;35.43;21.93;;;;;;;;;;6319875;22;20450;-77
2022/12/04 07:30:46;;;;;;;38.10;23.90;;;;;;;;;;6327089;22;20411;-76
2022/12/04 07:33:35;;;;;;;36.87;21.63;;;;;;;;;;6318735;22;20419;-75
2022/12/04 07:36:24;;;;;;;41.23;23.80;;;;;;;;;;6324455;22;20439;-75
2022/12/04 07:39:14;;;;;;;38.47;23.30;;;;;;;;;;6334530;22;20439;-75
2022/12/04 07:42:02;;;;;;;39.10;22.13;;;;;;;;;;6323611;22;20746;-76
2022/12/04 07:44:51;;;;;;;40.83;23.53;;;;;;;;;;6331608;22;21044;-75
2022/12/04 07:47:39;;;;;;;43.20;23.60;;;;;;;;;;6327272;22;20413;-74
2022/12/04 07:50:28;;;;;;;38.93;23.63;;;;;;;;;;6326101;22;20413;-74
2022/12/04 07:53:17;;;;;;;41.93;23.40;;;;;;;;;;6324726;22;20419;-74
2022/12/04 07:56:07;;;;;;;36.13;21.23;;;;;;;;;;6324403;22;20440;-76
2022/12/04 07:58:59;;;;;;;42.47;23.70;;;;;;;;;;6331657;22;20573;-75
2022/12/04 08:01:48;;;;;;;40.47;23.57;;;;;;;;;;6324066;22;21232;-75
2022/12/04 08:04:37;;;;;;;36.97;23.13;;;;;;;;;;6320083;22;20507;-76
2022/12/04 08:07:26;;;;;;;41.73;25.90;;;;;;;;;;6337885;22;20488;-77
2022/12/04 08:10:15;;;;;;;38.50;23.43;;;;;;;;;;6327956;22;20427;-75
2022/12/04 08:13:10;;;;;;;38.43;23.07;;;;;;;;;;6328741;22;20415;-77
2022/12/04 08:16:01;;;;;;;40.33;22.73;;;;;;;;;;6326276;22;20443;-75
2022/12/04 08:18:50;;;;;;;40.20;23.53;;;;;;;;;;6326315;22;20424;-76
2022/12/04 08:21:40;;;;;;;42.20;24.60;;;;;;;;;;6323263;22;20419;-78
2022/12/04 08:24:28;;;;;;;43.27;25.13;;;;;;;;;;6326104;22;20404;-75
2022/12/04 08:27:17;;;;;;;39.10;23.50;;;;;;;;;;6333653;22;20423;-75
2022/12/04 08:30:08;;;;;;;39.57;23.40;;;;;;;;;;6328994;22;21239;-77
2022/12/04 08:32:57;;;;;;;41.07;23.00;;;;;;;;;;6318555;22;20423;-75
2022/12/04 08:35:46;;;;;;;40.57;24.73;;;;;;;;;;6341539;22;20432;-76
2022/12/04 08:38:34;;;;;;;40.20;23.10;;;;;;;;;;6351564;22;20428;-75
2022/12/04 08:41:24;;;;;;;41.57;24.60;;;;;;;;;;6329209;22;20415;-76
2022/12/04 08:44:13;;;;;;;37.47;22.63;;;;;;;;;;6328982;22;20408;-77
2022/12/04 08:47:06;;;;;;;40.20;24.03;;;;;;;;;;6330289;22;20411;-76
2022/12/04 08:49:54;;;;;;;43.20;25.97;;;;;;;;;;6331892;22;20415;-75
2022/12/04 08:52:43;;;;;;;40.73;23.90;;;;;;;;;;6338368;22;20507;-76
2022/12/04 08:55:32;;;;;;;39.87;24.47;;;;;;;;;;6341743;22;20423;-76
2022/12/04 08:58:20;;;;;;;37.83;23.00;;;;;;;;;;6327385;22;20464;-76
2022/12/04 09:01:10;;;;;;;41.97;24.60;;;;;;;;;;6318805;22;20414;-74
2022/12/04 09:04:01;;;;;;;42.30;24.67;;;;;;;;;;6323424;22;20418;-76
2022/12/04 09:06:50;;;;;;;37.40;23.60;;;;;;;;;;6335235;22;20530;-75
2022/12/04 09:09:38;;;;;;;39.33;24.37;;;;;;;;;;6324986;22;20431;-75
2022/12/04 09:12:34;;;;;;;40.33;24.13;;;;;;;;;;6328216;22;20420;-75
2022/12/04 09:15:23;;;;;;;40.00;23.43;;;;;;;;;;6321802;22;20753;-77
2022/12/04 09:18:11;;;;;;;39.07;25.57;;;;;;;;;;6338638;22;20427;-76
2022/12/04 09:21:02;;;;;;;41.03;24.37;;;;;;;;;;6329739;22;20419;-76
2022/12/04 09:23:51;;;;;;;41.67;24.00;;;;;;;;;;6329957;22;20928;-75
2022/12/04 09:26:39;;;;;;;33.50;21.67;;;;;;;;;;6331781;22;20405;-75
2022/12/04 09:29:28;;;;;;;36.43;22.43;;;;;;;;;;6328236;22;20459;-76
2022/12/04 09:32:17;;;;;;;38.83;22.03;;;;;;;;;;6332698;22;20416;-75
2022/12/04 09:35:06;;;;;;;36.53;23.10;;;;;;;;;;6342167;22;20404;-76
2022/12/04 09:37:58;;;;;;;39.10;23.33;;;;;;;;;;6337846;22;20956;-77
2022/12/04 09:40:50;;;;;;;38.60;22.60;;;;;;;;;;6329933;22;20421;-78
2022/12/04 09:43:42;;;;;;;38.17;23.37;;;;;;;;;;6328990;22;20420;-76
2022/12/04 09:46:33;;;;;;;43.00;24.50;;;;;;;;;;6340450;22;20414;-75
2022/12/04 09:49:23;;;;;;;38.83;23.50;;;;;;;;;;6332441;22;20570;-76
2022/12/04 09:52:20;;;;;;;37.20;21.57;;;;;;;;;;6340166;22;20507;-76
2022/12/04 09:55:15;;;;;;;36.07;22.00;;;;;;;;;;6331483;22;20412;-76
2022/12/04 09:58:05;;;;;;;32.43;22.43;;;;;;;;;;6327550;22;20995;-76
2022/12/04 10:00:55;;;;;;;36.30;22.70;;;;;;;;;;6331964;22;20905;-79
2022/12/04 10:03:44;;;;;;;36.40;23.23;;;;;;;;;;6327862;22;20412;-75
2022/12/04 10:06:38;;;;;;;35.80;22.70;;;;;;;;;;6332100;22;20405;-76
2022/12/04 10:09:31;;;;;;;35.60;23.43;;;;;;;;;;6331221;22;20439;-76
2022/12/04 10:12:23;;;;;;;32.90;23.10;;;;;;;;;;6331569;22;20412;-76
2022/12/04 10:15:14;;;;;;;31.77;21.87;;;;;;;;;;6325503;22;20423;-76
2022/12/04 10:18:14;;;;;;;33.40;21.27;;;;;;;;;;6326487;22;20447;-76
2022/12/04 10:21:10;;;;;;;33.73;22.70;;;;;;;;;;6330414;22;20804;-75
2022/12/04 10:24:05;;;;;;;36.43;23.67;;;;;;;;;;6338662;22;20752;-76
2022/12/04 10:26:55;;;;;;;32.10;21.37;;;;;;;;;;6351482;22;20431;-78
2022/12/04 10:29:48;;;;;;;37.57;24.53;;;;;;;;;;6338338;22;20438;-76
2022/12/04 10:32:37;;;;;;;33.33;20.47;;;;;;;;;;6327558;22;20409;-76
2022/12/04 10:35:28;;;;;;;37.27;22.87;;;;;;;;;;6332615;22;20499;-77
2022/12/04 10:38:24;;;;;;;36.40;21.40;;;;;;;;;;6335212;22;20445;-76
2022/12/04 10:41:16;;;;;;;35.70;22.30;;;;;;;;;;6328444;22;20411;-76
2022/12/04 10:44:04;;;;;;;34.87;22.10;;;;;;;;;;6339647;22;20416;-76
2022/12/04 10:46:56;;;;;;;33.53;21.70;;;;;;;;;;6329298;22;20427;-76
2022/12/04 10:49:45;;;;;;;34.63;21.90;;;;;;;;;;6328492;22;20553;-76
2022/12/04 10:52:33;;;;;;;33.60;23.23;;;;;;;;;;6330669;22;20412;-75
2022/12/04 10:55:32;;;;;;;34.90;23.63;;;;;;;;;;6324757;22;20424;-76
2022/12/04 10:58:21;;;;;;;33.90;22.00;;;;;;;;;;6325221;22;20448;-75
2022/12/04 11:01:12;;;;;;;32.03;21.33;;;;;;;;;;6334929;22;20491;-76
2022/12/04 11:04:06;;;;;;;32.47;21.30;;;;;;;;;;6325211;22;20415;-75
2022/12/04 11:07:02;;;;;;;31.20;20.87;;;;;;;;;;6323796;22;20418;-75
2022/12/04 11:10:02;;;;;;;30.23;20.53;;;;;;;;;;6323218;22;20560;-75
2022/12/04 11:12:54;;;;;;;35.77;22.70;;;;;;;;;;6325908;22;20419;-75
2022/12/04 11:15:47;;;;;;;33.00;22.53;;;;;;;;;;6317556;22;20485;-75
2022/12/04 11:18:46;;;;;;;33.33;22.20;;;;;;;;;;6328566;22;20903;-75
2022/12/04 11:21:39;;;;;;;34.47;22.53;;;;;;;;;;6329773;22;20404;-74
2022/12/04 11:24:30;;;;;;;36.30;22.60;;;;;;;;;;6326617;22;20723;-77
2022/12/04 11:27:23;;;;;;;31.40;21.57;;;;;;;;;;6338904;22;20812;-74
2022/12/04 11:30:14;;;;;;;31.70;21.30;;;;;;;;;;6322825;22;20529;-76
2022/12/04 11:33:04;;;;;;;32.90;21.13;;;;;;;;;;6327674;22;20407;-75
2022/12/04 11:35:56;;;;;;;31.00;21.73;;;;;;;;;;6329375;22;20419;-75
2022/12/04 11:38:47;;;;;;;30.20;19.70;;;;;;;;;;6327537;22;20446;-75
2022/12/04 11:41:39;;;;;;;34.23;21.60;;;;;;;;;;6340385;22;20749;-76
2022/12/04 11:44:30;;;;;;;33.13;21.60;;;;;;;;;;6329917;22;20415;-76
2022/12/04 11:47:21;;;;;;;34.47;22.30;;;;;;;;;;6329551;22;20415;-75
2022/12/04 11:50:14;;;;;;;29.20;21.57;;;;;;;;;;6338372;22;20427;-76
2022/12/04 11:53:06;;;;;;;33.40;21.83;;;;;;;;;;6329144;22;20530;-76
2022/12/04 11:56:15;;;;;;;29.40;20.20;;;;;;;;;;6338626;22;20412;-78
2022/12/04 11:59:19;;;;;;;30.80;20.17;;;;;;;;;;6330762;22;20809;-74
2022/12/04 12:02:19;;;;;;;32.33;21.60;;;;;;;;;;6325816;22;20406;-74
2022/12/04 12:05:17;;;;;;;33.67;21.17;;;;;;;;;;6327662;22;20415;-74
2022/12/04 12:08:10;;;;;;;31.40;21.77;;;;;;;;;;6326976;22;20403;-74
2022/12/04 12:11:04;;;;;;;32.83;20.73;;;;;;;;;;6328362;22;20907;-74
2022/12/04 12:13:58;;;;;;;32.77;21.50;;;;;;;;;;6326921;22;20414;-74
2022/12/04 12:16:53;;;;;;;33.27;22.20;;;;;;;;;;6328918;22;20414;-74
2022/12/04 12:19:55;;;;;;;31.93;21.20;;;;;;;;;;6331678;22;20447;-74
2022/12/04 12:22:56;;;;;;;34.80;21.53;;;;;;;;;;6350790;22;20480;-74
2022/12/04 12:25:48;;;;;;;33.33;21.53;;;;;;;;;;6364718;22;20419;-75
2022/12/04 12:28:51;;;;;;;30.93;21.80;;;;;;;;;;6343930;22;20475;-74
2022/12/04 12:31:59;;;;;;;31.50;21.20;;;;;;;;;;6330170;22;20420;-74
2022/12/04 12:34:48;;;;;;;30.50;20.70;;;;;;;;;;6330412;22;20408;-74
2022/12/04 12:37:42;;;;;;;32.40;21.20;;;;;;;;;;6332760;22;21033;-74
2022/12/04 12:40:33;;;;;;;32.23;21.67;;;;;;;;;;6332400;22;20406;-75
2022/12/04 12:43:28;;;;;;;31.00;20.07;;;;;;;;;;6334044;22;20415;-74
2022/12/04 12:46:21;;;;;;;30.17;20.70;;;;;;;;;;6330420;22;20522;-74
2022/12/04 12:49:13;;;;;;;28.43;19.67;;;;;;;;;;6326701;22;20430;-74
2022/12/04 12:52:06;;;;;;;28.17;19.20;;;;;;;;;;6337145;22;20435;-74
2022/12/04 12:54:56;;;;;;;24.90;18.30;;;;;;;;;;6330772;22;20410;-75
2022/12/04 12:57:47;;;;;;;26.50;19.67;;;;;;;;;;6329601;22;20458;-74
2022/12/04 13:00:38;;;;;;;30.97;19.60;;;;;;;;;;6322385;22;20420;-74
2022/12/04 13:03:29;;;;;;;31.33;19.90;;;;;;;;;;6324568;22;20574;-73
2022/12/04 13:06:21;;;;;;;28.67;19.90;;;;;;;;;;6325040;22;20826;-74
2022/12/04 13:09:17;;;;;;;29.23;19.63;;;;;;;;;;6327752;22;20503;-74
2022/12/04 13:12:09;;;;;;;28.90;19.63;;;;;;;;;;6324322;22;20414;-74
2022/12/04 13:14:58;;;;;;;27.90;19.60;;;;;;;;;;6326993;22;20408;-73
2022/12/04 13:17:48;;;;;;;26.77;18.60;;;;;;;;;;6326585;22;20437;-74
2022/12/04 13:20:42;;;;;;;26.97;18.30;;;;;;;;;;6325852;22;20412;-74
2022/12/04 13:23:42;;;;;;;28.60;20.00;;;;;;;;;;6337166;22;20755;-74
2022/12/04 13:26:40;;;;;;;28.67;19.40;;;;;;;;;;6326395;22;20409;-74
2022/12/04 13:29:41;;;;;;;27.23;18.40;;;;;;;;;;6317031;22;20427;-75
2022/12/04 13:32:39;;;;;;;30.60;21.33;;;;;;;;;;6327012;22;20413;-75
2022/12/04 13:35:35;;;;;;;27.13;19.50;;;;;;;;;;6327657;22;20415;-75
2022/12/04 13:38:27;;;;;;;26.00;19.10;;;;;;;;;;6325913;22;20447;-76
2022/12/04 13:41:18;;;;;;;27.43;17.90;;;;;;;;;;6326471;22;21054;-76
2022/12/04 13:44:14;;;;;;;25.00;17.50;;;;;;;;;;6324915;22;20424;-76
2022/12/04 13:47:04;;;;;;;24.83;17.83;;;;;;;;;;6330376;22;20407;-76
2022/12/04 13:49:52;;;;;;;24.27;17.10;;;;;;;;;;6339358;22;20906;-76
2022/12/04 13:52:41;;;;;;;25.70;17.00;;;;;;;;;;6327105;22;20751;-76
2022/12/04 13:55:32;;;;;;;25.17;17.63;;;;;;;;;;6318465;22;20415;-76
2022/12/04 13:58:27;;;;;;;25.80;19.00;;;;;;;;;;6325208;22;20585;-76
2022/12/04 14:01:25;;;;;;;26.30;18.40;;;;;;;;;;6321009;22;20414;-77
2022/12/04 14:04:23;;;;;;;26.40;17.60;;;;;;;;;;6325045;22;20603;-74
2022/12/04 14:07:22;;;;;;;22.70;16.50;;;;;;;;;;6322891;22;20404;-74
2022/12/04 14:10:26;;;;;;;26.03;17.17;;;;;;;;;;6324179;22;21148;-76
2022/12/04 14:13:19;;;;;;;27.57;20.00;;;;;;;;;;6335648;22;20415;-76
2022/12/04 14:16:16;;;;;;;27.33;19.60;;;;;;;;;;6329242;22;20415;-77
2022/12/04 14:19:05;;;;;;;26.50;18.77;;;;;;;;;;6329218;22;20447;-77
2022/12/04 14:21:54;;;;;;;23.40;17.33;;;;;;;;;;6330600;22;20421;-77
2022/12/04 14:24:43;;;;;;;23.00;16.60;;;;;;;;;;6329291;22;20440;-77
2022/12/04 14:27:33;;;;;;;25.43;18.23;;;;;;;;;;6327548;22;20408;-76
2022/12/04 14:30:23;;;;;;;25.53;18.40;;;;;;;;;;6329786;22;20415;-76
2022/12/04 14:33:17;;;;;;;25.63;18.00;;;;;;;;;;6326355;22;20828;-77
2022/12/04 14:36:13;;;;;;;27.20;19.57;;;;;;;;;;6342408;22;20420;-78
2022/12/04 14:39:09;;;;;;;26.80;18.10;;;;;;;;;;6354588;22;20444;-76
2022/12/04 14:42:05;;;;;;;26.90;17.97;;;;;;;;;;6363665;22;20402;-79
2022/12/04 14:44:55;;;;;;;27.70;19.60;;;;;;;;;;6361914;22;20411;-79
2022/12/04 14:47:49;;;;;;;31.07;20.87;;;;;;;;;;6351997;22;20415;-78
2022/12/04 14:50:43;;;;;;;29.20;19.80;;;;;;;;;;6348051;22;20406;-78
2022/12/04 14:53:36;;;;;;;27.07;19.90;;;;;;;;;;6350226;22;20768;-76
2022/12/04 14:56:29;;;;;;;28.80;19.33;;;;;;;;;;6349004;22;20425;-76
2022/12/04 14:59:18;;;;;;;27.27;19.00;;;;;;;;;;6349881;22;20447;-75
2022/12/04 15:02:11;;;;;;;29.27;19.57;;;;;;;;;;6343319;22;20415;-73
2022/12/04 15:05:00;;;;;;;32.03;20.63;;;;;;;;;;6346293;22;20916;-75
2022/12/04 15:07:51;;;;;;;30.67;21.00;;;;;;;;;;6356800;22;20414;-78
2022/12/04 15:13:47;;;;;;;32.20;21.83;;;;;;;;;;6336797;22;20412;-76
2022/12/04 15:16:35;;;;;;;30.90;19.90;;;;;;;;;;6337067;22;20405;-77
2022/12/04 15:19:24;;;;;;;29.43;20.73;;;;;;;;;;6331159;22;20444;-74
2022/12/04 15:22:15;;;;;;;34.63;23.50;;;;;;;;;;6332888;22;20407;-73
2022/12/04 15:25:06;;;;;;;32.30;21.07;;;;;;;;;;6329107;22;20414;-73
2022/12/04 15:28:00;;;;;;;31.57;20.30;;;;;;;;;;6329040;22;21376;-73
2022/12/04 15:30:49;;;;;;;30.77;20.93;;;;;;;;;;6330404;22;20772;-73
2022/12/04 15:33:38;;;;;;;34.20;21.93;;;;;;;;;;6332497;22;20406;-73
2022/12/04 15:36:31;;;;;;;31.80;21.13;;;;;;;;;;6328776;22;20408;-73
2022/12/04 15:39:22;;;;;;;33.50;22.13;;;;;;;;;;6329132;22;20443;-73
2022/12/04 15:42:17;;;;;;;32.87;20.70;;;;;;;;;;6329942;22;20503;-72
2022/12/04 15:45:22;;;;;;;30.90;20.40;;;;;;;;;;6324655;22;20418;-73
2022/12/04 15:48:11;;;;;;;33.20;20.90;;;;;;;;;;6328407;22;21222;-74
2022/12/04 15:51:02;;;;;;;31.40;20.57;;;;;;;;;;6322672;22;20457;-74
2022/12/04 15:53:50;;;;;;;32.90;21.90;;;;;;;;;;6326745;22;20419;-74
2022/12/04 15:56:39;;;;;;;32.00;21.43;;;;;;;;;;6328234;22;20404;-74
2022/12/04 15:59:30;;;;;;;31.87;20.57;;;;;;;;;;6331328;22;20439;-73
2022/12/04 16:02:24;;;;;;;29.60;19.67;;;;;;;;;;6324777;22;20448;-74
2022/12/04 16:05:13;;;;;;;28.90;19.70;;;;;;;;;;6325767;22;20412;-73
2022/12/04 16:08:02;;;;;;;28.73;20.77;;;;;;;;;;6329137;22;20412;-73
2022/12/04 16:10:58;;;;;;;28.50;19.67;;;;;;;;;;6327721;22;21284;-74
2022/12/04 16:13:47;;;;;;;27.13;19.73;;;;;;;;;;6336348;22;20777;-74
2022/12/04 16:16:42;;;;;;;28.10;18.87;;;;;;;;;;6329915;22;20415;-74
2022/12/04 16:19:32;;;;;;;29.90;19.67;;;;;;;;;;6328064;22;20452;-74
2022/12/04 16:22:22;;;;;;;27.90;19.47;;;;;;;;;;6326066;22;20419;-74
2022/12/04 16:25:11;;;;;;;31.30;20.63;;;;;;;;;;6328951;22;20896;-74
2022/12/04 16:28:00;;;;;;;30.80;21.30;;;;;;;;;;6322824;22;21261;-74
2022/12/04 16:30:53;;;;;;;30.93;19.80;;;;;;;;;;6338823;22;20408;-74
2022/12/04 16:33:43;;;;;;;26.30;18.67;;;;;;;;;;6326043;22;21087;-74
2022/12/04 16:36:32;;;;;;;30.20;19.53;;;;;;;;;;6327405;22;20751;-74
2022/12/04 16:39:20;;;;;;;31.73;20.83;;;;;;;;;;6329014;22;20465;-74
2022/12/04 16:42:14;;;;;;;31.10;21.17;;;;;;;;;;6324069;22;20417;-74
2022/12/04 16:45:03;;;;;;;29.93;18.93;;;;;;;;;;6325949;22;20416;-74
2022/12/04 16:47:51;;;;;;;29.03;19.20;;;;;;;;;;6326766;22;20415;-74
2022/12/04 16:50:42;;;;;;;33.10;20.47;;;;;;;;;;6331377;22;20408;-74
2022/12/04 16:53:53;;;;;;;33.43;21.90;;;;;;;;;;6351913;22;20406;-74
2022/12/04 16:56:42;;;;;;;33.10;21.70;;;;;;;;;;6353411;22;20416;-74